createdAt,value
2023-03-28T00:02:09.923Z,98842.66
2023-03-28T00:04:55.475Z,98850.19
2023-03-28T00:07:41.070Z,98852.28
2023-03-28T00:10:26.559Z,98855.03
2023-03-28T00:13:12.576Z,98854.22
2023-03-28T00:16:02.626Z,98854.13
2023-03-28T00:18:48.024Z,98855.63
2023-03-28T00:21:39.262Z,98860.38
2023-03-28T00:24:25.296Z,98777.16
2023-03-28T00:27:10.724Z,98775.38
2023-03-28T00:29:55.885Z,98869.50
2023-03-28T00:32:41.703Z,98862.53
2023-03-28T00:35:27.354Z,98862.16
2023-03-28T00:38:12.812Z,98862.63
2023-03-28T00:41:00.582Z,98856.00
2023-03-28T00:43:49.871Z,98865.78
2023-03-28T00:46:39.704Z,98870.41
2023-03-28T00:49:26.029Z,98827.38
2023-03-28T00:52:13.422Z,98873.94
2023-03-28T00:55:00.133Z,98871.97
2023-03-28T00:57:49.069Z,98876.34
2023-03-28T01:00:35.244Z,98804.72
2023-03-28T01:03:23.358Z,98890.00
2023-03-28T01:06:11.254Z,98821.66
2023-03-28T01:09:00.663Z,98863.47
2023-03-28T01:11:46.799Z,98849.75
2023-03-28T01:14:33.076Z,98871.69
2023-03-28T01:17:20.514Z,98871.38
2023-03-28T01:20:58.700Z,98880.34
2023-03-28T01:24:11.786Z,98878.22
2023-03-28T01:27:08.691Z,98879.41
2023-03-28T01:30:08.931Z,98887.19
2023-03-28T01:33:42.282Z,98861.47
2023-03-28T01:37:15.852Z,98890.50
2023-03-28T01:40:18.768Z,98892.66
2023-03-28T01:43:36.316Z,98889.56
2023-03-28T01:46:30.184Z,98891.56
2023-03-28T01:49:22.074Z,98887.88
2023-03-28T01:52:18.008Z,98890.13
2023-03-28T01:55:18.222Z,98892.78
2023-03-28T01:58:05.309Z,98900.47
2023-03-28T02:01:11.684Z,98902.47
2023-03-28T02:04:01.538Z,98891.47
2023-03-28T02:07:08.045Z,98895.50
2023-03-28T02:09:58.929Z,98902.84
2023-03-28T02:13:09.478Z,98903.53
2023-03-28T02:16:06.101Z,98840.50
2023-03-28T02:19:30.940Z,98888.66
2023-03-28T02:22:54.005Z,98883.19
2023-03-28T02:25:55.487Z,98895.69
2023-03-28T02:29:00.356Z,98896.91
2023-03-28T02:31:54.604Z,98896.34
2023-03-28T02:34:42.567Z,98903.97
2023-03-28T02:37:43.717Z,98898.53
2023-03-28T02:41:08.625Z,98896.06
2023-03-28T02:43:59.516Z,98900.34
2023-03-28T02:47:01.265Z,98905.16
2023-03-28T02:49:53.831Z,98915.13
2023-03-28T02:52:44.562Z,98913.72
2023-03-28T02:55:50.990Z,98901.28
2023-03-28T02:59:22.721Z,98907.78
2023-03-28T03:02:08.420Z,98913.97
2023-03-28T03:04:54.032Z,98909.47
2023-03-28T03:07:39.886Z,98881.31
2023-03-28T03:10:25.051Z,98913.50
2023-03-28T03:13:10.222Z,98909.34
2023-03-28T03:15:55.655Z,98914.22
2023-03-28T03:18:41.768Z,98915.16
2023-03-28T03:21:27.321Z,98918.44
2023-03-28T03:24:12.702Z,98916.25
2023-03-28T03:27:01.348Z,98908.03
2023-03-28T03:29:47.327Z,98897.78
2023-03-28T03:32:35.636Z,98917.63
2023-03-28T03:35:22.790Z,98912.31
2023-03-28T03:38:08.947Z,98912.66
2023-03-28T03:40:54.028Z,98902.63
2023-03-28T03:43:39.585Z,98913.72
2023-03-28T03:46:24.943Z,98923.16
2023-03-28T03:49:11.158Z,98926.63
2023-03-28T03:51:56.421Z,98926.16
2023-03-28T03:54:41.917Z,98888.16
2023-03-28T03:57:28.912Z,98931.00
2023-03-28T04:00:18.375Z,98931.59
2023-03-28T04:03:06.785Z,98913.09
2023-03-28T04:05:56.718Z,98939.38
2023-03-28T04:08:42.609Z,98945.88
2023-03-28T04:11:28.389Z,98950.78
2023-03-28T04:14:13.619Z,98897.09
2023-03-28T04:16:58.887Z,98960.78
2023-03-28T04:19:47.008Z,98952.06
2023-03-28T04:22:33.380Z,98956.28
2023-03-28T04:25:18.992Z,98954.13
2023-03-28T04:28:05.269Z,98949.88
2023-03-28T04:30:57.341Z,98963.38
2023-03-28T04:34:03.556Z,98957.25
2023-03-28T04:36:50.761Z,98960.91
2023-03-28T04:39:36.136Z,98962.69
2023-03-28T04:42:50.831Z,98960.09
2023-03-28T04:45:38.916Z,98971.09
2023-03-28T04:48:31.300Z,98962.00
2023-03-28T04:51:16.864Z,98965.31
2023-03-28T04:54:02.655Z,98974.50
2023-03-28T04:57:21.772Z,98934.50
2023-03-28T05:00:11.888Z,98931.34
2023-03-28T05:03:25.078Z,98958.22
2023-03-28T05:06:19.277Z,98919.56
2023-03-28T05:09:04.905Z,98991.88
2023-03-28T05:11:50.890Z,99007.09
2023-03-28T05:14:36.417Z,98991.50
2023-03-28T05:17:30.724Z,98920.06
2023-03-28T05:20:19.453Z,98901.00
2023-03-28T05:23:09.039Z,99004.50
2023-03-28T05:25:57.661Z,98951.94
2023-03-28T05:28:44.178Z,99016.28
2023-03-28T05:31:31.279Z,99019.13
2023-03-28T05:34:34.062Z,99028.09
2023-03-28T05:37:19.887Z,99026.69
2023-03-28T05:40:12.504Z,99033.44
2023-03-28T05:42:59.914Z,99039.34
2023-03-28T05:45:48.113Z,99017.94
2023-03-28T05:48:38.022Z,99042.31
2023-03-28T05:51:23.652Z,99051.00
2023-03-28T05:54:08.950Z,99054.78
2023-03-28T05:56:54.261Z,99062.94
2023-03-28T05:59:43.975Z,99068.69
2023-03-28T06:02:31.770Z,99069.28
2023-03-28T06:05:18.063Z,99073.38
2023-03-28T06:08:04.954Z,99074.91
2023-03-28T06:10:51.906Z,99079.06
2023-03-28T06:13:44.710Z,99081.88
2023-03-28T06:16:32.497Z,99076.44
2023-03-28T06:19:19.028Z,99079.88
2023-03-28T06:22:09.246Z,99076.94
2023-03-28T06:24:54.637Z,99081.28
2023-03-28T06:27:50.910Z,99083.22
2023-03-28T06:30:38.014Z,99085.44
2023-03-28T06:33:26.050Z,99089.81
2023-03-28T06:36:12.240Z,99100.22
2023-03-28T06:38:57.633Z,99047.03
2023-03-28T06:41:44.817Z,99068.66
2023-03-28T06:44:31.134Z,99072.50
2023-03-28T06:47:35.324Z,99108.72
2023-03-28T06:50:21.192Z,99110.47
2023-03-28T06:53:17.383Z,99108.72
2023-03-28T06:56:02.710Z,99115.06
2023-03-28T06:58:48.901Z,99113.69
2023-03-28T07:01:38.287Z,99109.59
2023-03-28T07:04:34.125Z,99098.63
2023-03-28T07:07:19.598Z,99140.31
2023-03-28T07:10:07.303Z,99119.75
2023-03-28T07:12:52.806Z,99142.53
2023-03-28T07:15:38.265Z,99140.88
2023-03-28T07:18:23.668Z,99139.25
2023-03-28T07:21:14.320Z,99148.94
2023-03-28T07:23:59.791Z,99154.28
2023-03-28T07:26:54.809Z,99164.94
2023-03-28T07:29:46.698Z,99164.09
2023-03-28T07:32:42.642Z,99169.53
2023-03-28T07:35:39.222Z,99183.25
2023-03-28T07:38:24.591Z,99177.53
2023-03-28T07:41:13.526Z,99183.91
2023-03-28T07:44:00.229Z,99186.44
2023-03-28T07:46:45.328Z,99183.97
2023-03-28T07:49:30.589Z,99179.09
2023-03-28T07:52:15.967Z,99178.66
2023-03-28T07:55:01.425Z,99186.09
2023-03-28T07:57:49.408Z,99187.28
2023-03-28T08:01:06.319Z,99184.09
2023-03-28T08:03:54.623Z,99182.50
2023-03-28T08:06:43.230Z,99185.25
2023-03-28T08:09:28.589Z,99199.34
2023-03-28T08:12:36.638Z,99210.56
2023-03-28T08:15:22.031Z,99177.91
2023-03-28T08:18:07.545Z,99174.94
2023-03-28T08:21:00.510Z,99122.34
2023-03-28T08:23:48.702Z,99201.78
2023-03-28T08:29:29.593Z,99216.50
2023-03-28T08:32:15.079Z,99205.88
2023-03-28T08:35:00.504Z,99207.16
2023-03-28T08:37:46.263Z,99209.44
2023-03-28T08:40:32.146Z,99196.97
2023-03-28T08:43:36.871Z,99207.16
2023-03-28T08:46:27.060Z,99178.00
2023-03-28T08:49:18.238Z,99211.81
2023-03-28T08:52:04.440Z,99206.06
2023-03-28T08:55:35.531Z,99219.84
2023-03-28T08:58:21.547Z,99169.13
2023-03-28T09:01:09.383Z,99222.00
2023-03-28T09:03:55.094Z,99215.00
2023-03-28T09:06:49.298Z,99170.22
2023-03-28T09:09:45.926Z,99215.72
2023-03-28T09:13:00.058Z,99225.47
2023-03-28T09:15:47.966Z,99220.59
2023-03-28T09:18:55.958Z,99220.53
2023-03-28T09:22:16.814Z,99218.81
2023-03-28T09:25:17.778Z,99224.22
2023-03-28T09:28:26.548Z,99227.25
2023-03-28T09:31:15.692Z,99222.50
2023-03-28T09:34:02.477Z,99225.97
2023-03-28T09:37:02.563Z,99212.94
2023-03-28T09:39:50.642Z,99159.22
2023-03-28T09:42:49.428Z,99158.72
2023-03-28T09:45:56.960Z,99226.06
2023-03-28T09:49:01.362Z,99227.22
2023-03-28T09:51:53.917Z,99179.09
2023-03-28T09:54:41.143Z,99230.25
2023-03-28T09:57:26.766Z,99228.41
2023-03-28T10:00:21.594Z,99227.91
2023-03-28T10:03:29.192Z,99225.25
2023-03-28T10:06:24.783Z,99228.97
2023-03-28T10:09:25.271Z,99232.25
2023-03-28T10:12:31.068Z,99210.16
2023-03-28T10:15:39.688Z,99234.19
2023-03-28T10:19:03.751Z,99193.72
2023-03-28T10:22:14.458Z,99227.47
2023-03-28T10:25:08.019Z,99234.88
2023-03-28T10:27:53.688Z,99224.16
2023-03-28T10:30:40.484Z,99206.88
2023-03-28T10:33:31.806Z,99209.78
2023-03-28T10:36:40.415Z,99222.09
2023-03-28T10:39:31.494Z,99213.28
2023-03-28T10:42:46.439Z,99120.69
2023-03-28T10:45:54.760Z,99212.44
2023-03-28T10:49:01.285Z,99212.59
2023-03-28T10:51:47.031Z,99214.06
2023-03-28T10:54:41.570Z,99209.00
2023-03-28T10:57:44.513Z,99209.09
2023-03-28T11:00:57.994Z,99192.59
2023-03-28T11:03:55.418Z,99205.41
2023-03-28T11:07:10.939Z,99209.09
2023-03-28T11:10:35.753Z,99204.53
2023-03-28T11:14:02.865Z,99201.84
2023-03-28T11:17:04.176Z,99205.00
2023-03-28T11:20:06.000Z,99192.13
2023-03-28T11:23:30.883Z,99183.88
2023-03-28T11:26:41.684Z,99184.47
2023-03-28T11:30:14.812Z,99184.88
2023-03-28T11:33:30.663Z,99186.97
2023-03-28T11:36:38.777Z,99180.84
2023-03-28T11:39:52.990Z,99175.78
2023-03-28T11:43:00.188Z,99180.00
2023-03-28T11:45:52.184Z,99174.47
2023-03-28T11:48:56.139Z,99170.34
2023-03-28T11:52:01.073Z,99179.13
2023-03-28T11:55:01.438Z,99167.56
2023-03-28T11:58:00.064Z,99170.00
2023-03-28T12:01:08.907Z,99178.91
2023-03-28T12:04:17.261Z,99165.16
2023-03-28T12:07:16.166Z,99178.78
2023-03-28T12:10:29.388Z,99113.38
2023-03-28T12:14:11.964Z,99161.34
2023-03-28T12:17:15.758Z,99161.44
2023-03-28T12:20:01.701Z,99096.13
2023-03-28T12:22:54.220Z,99160.34
2023-03-28T12:26:25.838Z,99156.13
2023-03-28T12:29:28.090Z,99130.00
2023-03-28T12:32:29.430Z,99158.06
2023-03-28T12:35:29.738Z,99149.06
2023-03-28T12:38:27.330Z,99156.22
2023-03-28T12:41:29.461Z,99146.84
2023-03-28T12:44:25.952Z,99142.31
2023-03-28T12:47:21.273Z,99108.91
2023-03-28T12:50:15.576Z,99145.00
2023-03-28T12:53:01.602Z,99135.59
2023-03-28T12:55:53.869Z,99142.88
2023-03-28T12:58:42.107Z,99147.88
2023-03-28T13:01:54.058Z,99131.75
2023-03-28T13:05:04.157Z,99133.59
2023-03-28T13:08:09.508Z,99076.78
2023-03-28T13:11:05.459Z,99135.06
2023-03-28T13:14:16.096Z,99130.81
2023-03-28T13:17:25.106Z,99104.69
2023-03-28T13:20:16.145Z,99125.44
2023-03-28T13:23:08.114Z,99122.78
2023-03-28T13:26:02.561Z,99113.22
2023-03-28T13:28:49.380Z,99116.94
2023-03-28T13:31:34.706Z,99115.06
2023-03-28T13:34:23.644Z,99110.75
2023-03-28T13:37:24.542Z,99104.97
2023-03-28T13:40:40.335Z,99077.00
2023-03-28T13:43:28.357Z,99099.50
2023-03-28T13:46:16.559Z,99101.81
2023-03-28T13:49:10.910Z,99093.94
2023-03-28T13:52:02.193Z,99093.66
2023-03-28T13:54:47.659Z,99084.97
2023-03-28T13:57:33.339Z,99090.00
2023-03-28T14:00:23.586Z,99090.28
2023-03-28T14:03:15.279Z,99087.78
2023-03-28T14:06:12.054Z,99090.66
2023-03-28T14:09:02.353Z,99073.19
2023-03-28T14:11:49.856Z,99071.13
2023-03-28T14:14:42.621Z,99080.03
2023-03-28T14:17:34.055Z,99068.59
2023-03-28T14:20:19.516Z,99073.75
2023-03-28T14:23:05.348Z,99064.25
2023-03-28T14:25:57.320Z,99038.34
2023-03-28T14:28:45.456Z,99054.69
2023-03-28T14:31:32.143Z,99055.75
2023-03-28T14:34:20.565Z,99052.81
2023-03-28T14:37:14.758Z,99048.19
2023-03-28T14:39:59.714Z,99045.56
2023-03-28T14:42:44.983Z,99042.25
2023-03-28T14:45:34.596Z,99029.13
2023-03-28T14:48:24.234Z,98967.06
2023-03-28T14:51:13.318Z,99031.50
2023-03-28T14:53:58.475Z,98966.13
2023-03-28T14:56:44.958Z,99009.34
2023-03-28T14:59:38.626Z,99030.75
2023-03-28T15:02:32.607Z,98979.81
2023-03-28T15:05:20.794Z,99019.59
2023-03-28T15:08:17.870Z,99000.13
2023-03-28T15:11:13.339Z,99018.53
2023-03-28T15:14:15.424Z,99001.75
2023-03-28T15:17:01.521Z,99007.22
2023-03-28T15:19:51.695Z,98967.09
2023-03-28T15:22:37.304Z,98991.41
2023-03-28T15:25:23.876Z,99006.78
2023-03-28T15:28:09.637Z,99005.97
2023-03-28T15:30:58.887Z,99004.91
2023-03-28T15:33:47.080Z,98994.97
2023-03-28T15:36:33.270Z,98997.16
2023-03-28T15:39:39.024Z,98996.00
2023-03-28T15:42:32.211Z,98735.22
2023-03-28T15:45:20.641Z,98985.81
2023-03-28T15:48:12.160Z,98990.63
2023-03-28T15:50:57.651Z,98975.31
2023-03-28T15:53:46.489Z,98973.00
2023-03-28T15:56:33.187Z,98895.94
2023-03-28T15:59:40.196Z,98969.63
2023-03-28T16:02:25.559Z,98969.19
2023-03-28T16:05:14.057Z,98966.28
2023-03-28T16:07:59.515Z,98969.75
2023-03-28T16:10:44.703Z,98968.41
2023-03-28T16:13:50.348Z,98960.47
2023-03-28T16:17:09.988Z,98936.78
2023-03-28T16:20:13.803Z,98949.91
2023-03-28T16:22:59.147Z,98942.44
2023-03-28T16:25:44.588Z,98944.94
2023-03-28T16:28:29.927Z,98951.31
2023-03-28T16:31:15.709Z,98949.03
2023-03-28T16:34:01.150Z,98942.94
2023-03-28T16:36:46.487Z,98954.19
2023-03-28T16:39:31.477Z,98953.13
2023-03-28T16:42:16.582Z,98882.38
2023-03-28T16:45:02.232Z,98915.16
2023-03-28T16:47:47.605Z,98946.41
2023-03-28T16:50:33.157Z,98947.22
2023-03-28T16:53:18.207Z,98950.06
2023-03-28T16:56:05.927Z,98937.91
2023-03-28T16:58:51.145Z,98944.47
2023-03-28T17:01:36.911Z,98944.50
2023-03-28T17:04:22.354Z,98933.66
2023-03-28T17:07:07.762Z,98929.31
2023-03-28T17:09:53.274Z,98906.75
2023-03-28T17:12:38.960Z,98927.38
2023-03-28T17:15:24.315Z,98855.78
2023-03-28T17:18:09.599Z,98900.09
2023-03-28T17:21:03.863Z,98916.56
2023-03-28T17:23:50.030Z,98910.91
2023-03-28T17:26:35.203Z,98903.91
2023-03-28T17:29:27.665Z,98900.50
2023-03-28T17:32:13.320Z,98872.16
2023-03-28T17:34:58.891Z,98906.44
2023-03-28T17:37:44.283Z,98900.84
2023-03-28T17:40:29.421Z,98894.00
2023-03-28T17:43:15.239Z,98892.88
2023-03-28T17:46:01.058Z,98887.84
2023-03-28T17:48:47.280Z,98883.72
2023-03-28T17:51:35.139Z,98878.19
2023-03-28T17:54:24.340Z,98862.00
2023-03-28T17:57:11.119Z,98879.38
2023-03-28T17:59:56.949Z,98880.25
2023-03-28T18:02:42.849Z,98869.00
2023-03-28T18:05:37.274Z,98866.78
2023-03-28T18:08:22.597Z,98871.28
2023-03-28T18:11:10.260Z,98826.56
2023-03-28T18:13:55.673Z,98798.72
2023-03-28T18:16:43.004Z,98873.69
2023-03-28T18:19:28.184Z,98865.16
2023-03-28T18:22:15.167Z,98866.69
2023-03-28T18:25:01.257Z,98818.06
2023-03-28T18:27:47.105Z,98832.75
2023-03-28T18:30:32.624Z,98840.22
2023-03-28T18:33:19.346Z,98866.56
2023-03-28T18:36:05.221Z,98874.50
2023-03-28T18:38:54.022Z,98880.41
2023-03-28T18:41:39.477Z,98872.69
2023-03-28T18:44:24.869Z,98815.53
2023-03-28T18:47:10.084Z,98866.91
2023-03-28T18:49:55.370Z,98861.31
2023-03-28T18:52:53.276Z,98866.91
2023-03-28T18:55:41.920Z,98861.25
2023-03-28T18:58:29.592Z,98858.50
2023-03-28T19:01:15.075Z,98857.19
2023-03-28T19:04:00.215Z,98853.63
2023-03-28T19:06:46.099Z,98842.59
2023-03-28T19:09:31.835Z,98789.06
2023-03-28T19:12:17.352Z,98835.41
2023-03-28T19:15:04.262Z,98831.44
2023-03-28T19:17:49.988Z,98834.66
2023-03-28T19:20:35.399Z,98830.66
2023-03-28T19:23:21.758Z,98819.78
2023-03-28T19:26:09.718Z,98837.56
2023-03-28T19:28:55.252Z,98831.34
2023-03-28T19:31:40.525Z,98821.31
2023-03-28T19:34:26.166Z,98812.22
2023-03-28T19:37:11.783Z,98810.78
2023-03-28T19:39:56.970Z,98814.53
2023-03-28T19:42:42.163Z,98812.94
2023-03-28T19:45:28.917Z,98792.84
2023-03-28T19:48:14.209Z,98819.16
2023-03-28T19:51:00.896Z,98816.53
2023-03-28T19:53:46.322Z,98817.38
2023-03-28T19:56:31.868Z,98817.63
2023-03-28T19:59:17.171Z,98806.38
2023-03-28T20:02:02.484Z,98818.13
2023-03-28T20:04:48.004Z,98818.41
2023-03-28T20:07:33.131Z,98809.59
2023-03-28T20:10:18.607Z,98753.97
2023-03-28T20:13:04.273Z,98803.25
2023-03-28T20:15:49.533Z,98782.25
2023-03-28T20:18:36.196Z,98757.66
2023-03-28T20:21:21.474Z,98799.34
2023-03-28T20:24:07.171Z,98800.19
2023-03-28T20:26:52.948Z,98793.59
2023-03-28T20:29:38.215Z,98787.00
2023-03-28T20:32:23.409Z,98790.72
2023-03-28T20:35:09.081Z,98764.47
2023-03-28T20:37:54.648Z,98766.97
2023-03-28T20:40:40.202Z,98784.78
2023-03-28T20:43:25.322Z,98777.22
2023-03-28T20:46:10.842Z,98780.25
2023-03-28T20:48:56.238Z,98778.28
2023-03-28T20:51:41.415Z,98774.09
2023-03-28T20:54:26.578Z,98771.88
2023-03-28T20:57:12.036Z,98764.41
2023-03-28T20:59:57.393Z,98758.78
2023-03-28T21:02:42.609Z,98763.63
2023-03-28T21:05:28.279Z,98746.53
2023-03-28T21:08:15.531Z,98751.19
2023-03-28T21:11:01.204Z,98751.75
2023-03-28T21:13:46.857Z,98745.56
2023-03-28T21:16:33.696Z,98748.53
2023-03-28T21:19:19.061Z,98739.91
2023-03-28T21:22:04.416Z,98745.81
2023-03-28T21:24:49.569Z,98719.72
2023-03-28T21:27:34.877Z,98708.44
2023-03-28T21:30:19.992Z,98740.31
2023-03-28T21:33:05.526Z,98736.31
2023-03-28T21:35:51.839Z,98737.56
2023-03-28T21:38:37.922Z,98728.88
2023-03-28T21:41:23.692Z,98730.69
2023-03-28T21:44:08.891Z,98728.50
2023-03-28T21:46:54.557Z,98730.41
2023-03-28T21:49:39.773Z,98729.31
2023-03-28T21:52:24.859Z,98726.28
2023-03-28T21:55:10.130Z,98733.03
2023-03-28T21:57:55.328Z,98729.28
2023-03-28T22:00:40.421Z,98733.03
2023-03-28T22:03:25.791Z,98737.13
2023-03-28T22:06:12.095Z,98666.63
2023-03-28T22:08:57.473Z,98720.19
2023-03-28T22:11:43.512Z,98703.72
2023-03-28T22:14:29.270Z,98645.75
2023-03-28T22:17:14.709Z,98699.19
2023-03-28T22:20:00.168Z,98735.38
2023-03-28T22:22:45.567Z,98735.22
2023-03-28T22:25:31.665Z,98733.03
2023-03-28T22:28:17.172Z,98724.31
2023-03-28T22:31:02.871Z,98654.69
2023-03-28T22:33:48.791Z,98726.47
2023-03-28T22:36:34.040Z,98720.44
2023-03-28T22:39:19.440Z,98716.41
2023-03-28T22:42:05.054Z,98711.59
2023-03-28T22:44:50.397Z,98680.94
2023-03-28T22:47:36.063Z,98712.44
2023-03-28T22:50:21.183Z,98705.97
2023-03-28T22:53:06.765Z,98700.38
2023-03-28T22:55:52.116Z,98701.31
2023-03-28T22:58:37.567Z,98698.81
2023-03-28T23:01:22.863Z,98711.56
2023-03-28T23:04:08.657Z,98699.78
2023-03-28T23:06:54.196Z,98698.28
2023-03-28T23:09:40.360Z,98670.13
2023-03-28T23:12:25.463Z,98628.34
2023-03-28T23:15:11.698Z,98678.72
2023-03-28T23:17:56.925Z,98675.59
2023-03-28T23:20:42.408Z,98679.78
2023-03-28T23:23:27.661Z,98655.56
2023-03-28T23:26:16.444Z,98633.16
2023-03-28T23:29:01.866Z,98680.47
2023-03-28T23:31:47.297Z,98682.31
2023-03-28T23:34:32.610Z,98582.41
2023-03-28T23:37:17.988Z,98669.41
2023-03-28T23:40:03.173Z,98673.50
2023-03-28T23:42:48.893Z,98642.28
2023-03-28T23:45:34.310Z,98673.34
2023-03-28T23:48:19.571Z,98676.75
2023-03-28T23:51:05.196Z,98680.09
2023-03-28T23:53:50.801Z,98654.28
2023-03-28T23:56:36.309Z,98683.41
2023-03-28T23:59:21.910Z,98643.56
